Main page
METAR-TAF:

METAR-TAF

Airports :

Longyearbyen, Norway

Svalbard Airport

latitude: 78-15N, longitude: 015-28E, elevation: 2 m

Current weather observation

The report was made 10 minutes ago, at 11:50 UTC
Wind 7 kt from the East/Southeast
Temperature -15°C
Humidity 85%
Pressure 1010 hPa
Visibility 10 km or more
Few clouds at a height of 1500 ft
Scattered clouds at a height of 2600 ft

METAR: ENSB 251150Z 12007KT 9999 FEW015 SCT026 M15/M17 Q1010 RMK WIND 1400FT 07003KT

Time: 13:00 (12:00 UTC)

Forecast

Forecast valid from 25 at 12 UTC to 26 at 12 UTC
Wind 8 kt from the Southeast
Visibility 10 km or more
Few clouds at a height of 1500 ft
Scattered clouds at a height of 3000 ft

TAF: ENSB 2512/2612 13008KT 9999 FEW015 SCT030

Weather observations and forecasts of more than 4000 airports (METAR and TAF reports).

The available stations are represented by yellow and red dots on the map.

Hover mouse over dot to see the name of the station.

Then click to see weather observations and forecasts.

To change the map : click on the green buttons with a black cross to zoom in, on the green button with a dash to zoom out, or on the green arrows for adjacent maps.


METAR-TAF: